createdAt,value
2023-08-29T00:00:10.891Z,18.10
2023-08-29T00:02:42.686Z,18.10
2023-08-29T00:05:10.526Z,18.10
2023-08-29T00:07:37.990Z,18.10
2023-08-29T00:10:05.092Z,18.00
2023-08-29T00:12:33.228Z,18.00
2023-08-29T00:15:01.091Z,18.00
2023-08-29T00:17:27.831Z,17.80
2023-08-29T00:19:55.811Z,17.90
2023-08-29T00:22:22.466Z,17.70
2023-08-29T00:24:49.551Z,17.80
2023-08-29T00:27:16.416Z,17.90
2023-08-29T00:29:44.108Z,17.90
2023-08-29T00:32:13.522Z,17.90
2023-08-29T00:34:40.114Z,17.90
2023-08-29T00:37:06.856Z,17.90
2023-08-29T00:39:34.011Z,17.80
2023-08-29T00:42:01.309Z,17.80
2023-08-29T00:44:27.999Z,17.70
2023-08-29T00:46:54.635Z,17.80
2023-08-29T00:49:24.413Z,17.80
2023-08-29T00:51:51.368Z,17.60
2023-08-29T00:54:19.643Z,17.50
2023-08-29T00:56:47.529Z,17.20
2023-08-29T00:59:14.979Z,17.30
2023-08-29T01:01:41.779Z,17.50
2023-08-29T01:04:10.648Z,17.60
2023-08-29T01:06:38.788Z,17.50
2023-08-29T01:09:09.906Z,17.50
2023-08-29T01:11:49.442Z,17.60
2023-08-29T01:14:37.338Z,17.70
2023-08-29T01:17:09.330Z,17.70
2023-08-29T01:19:40.921Z,17.60
2023-08-29T01:22:30.406Z,17.60
2023-08-29T01:25:21.263Z,17.70
2023-08-29T01:27:48.648Z,17.70
2023-08-29T01:30:16.115Z,17.70
2023-08-29T01:32:43.017Z,17.60
2023-08-29T01:35:13.851Z,17.20
2023-08-29T01:37:40.444Z,17.30
2023-08-29T01:40:07.648Z,17.20
2023-08-29T01:42:37.293Z,17.30
2023-08-29T01:45:05.806Z,17.40
2023-08-29T01:47:32.539Z,17.50
2023-08-29T01:50:00.723Z,17.30
2023-08-29T01:52:27.284Z,17.40
2023-08-29T01:54:53.897Z,17.40
2023-08-29T01:57:20.855Z,17.40
2023-08-29T01:59:48.226Z,17.50
2023-08-29T02:02:15.177Z,17.50
2023-08-29T02:04:42.367Z,17.50
2023-08-29T02:07:08.971Z,17.60
2023-08-29T02:09:35.555Z,17.60
2023-08-29T02:12:02.580Z,17.50
2023-08-29T02:14:29.151Z,17.50
2023-08-29T02:16:55.717Z,17.40
2023-08-29T02:19:22.443Z,17.50
2023-08-29T02:21:49.020Z,17.50
2023-08-29T02:24:15.567Z,17.50
2023-08-29T02:26:42.131Z,17.50
2023-08-29T02:29:08.725Z,17.50
2023-08-29T02:31:35.896Z,17.50
2023-08-29T02:34:02.463Z,17.20
2023-08-29T02:36:29.089Z,17.30
2023-08-29T02:38:55.649Z,17.30
2023-08-29T02:41:22.211Z,17.30
2023-08-29T02:43:48.780Z,17.30
2023-08-29T02:46:15.423Z,17.40
2023-08-29T02:48:42.037Z,17.40
2023-08-29T02:51:08.592Z,17.40
2023-08-29T02:53:35.138Z,17.40
2023-08-29T02:56:01.696Z,17.20
2023-08-29T02:58:28.668Z,17.20
2023-08-29T03:00:58.199Z,17.20
2023-08-29T03:03:25.087Z,17.10
2023-08-29T03:05:58.736Z,17.30
2023-08-29T03:08:26.639Z,17.40
2023-08-29T03:10:54.089Z,17.30
2023-08-29T03:13:20.964Z,17.30
2023-08-29T03:15:48.892Z,17.40
2023-08-29T03:18:15.706Z,17.30
2023-08-29T03:20:43.123Z,17.30
2023-08-29T03:23:11.329Z,17.20
2023-08-29T03:25:38.954Z,17.20
2023-08-29T03:28:06.339Z,17.20
2023-08-29T03:30:33.146Z,17.20
2023-08-29T03:32:59.821Z,17.10
2023-08-29T03:35:26.493Z,17.20
2023-08-29T03:37:53.062Z,17.30
2023-08-29T03:40:19.604Z,17.20
2023-08-29T03:42:46.165Z,17.10
2023-08-29T03:45:15.760Z,17.20
2023-08-29T03:47:42.443Z,17.20
2023-08-29T03:50:09.285Z,17.20
2023-08-29T03:52:38.475Z,17.20
2023-08-29T03:55:05.666Z,17.20
2023-08-29T03:57:32.260Z,16.90
2023-08-29T04:00:00.514Z,16.90
2023-08-29T04:02:27.070Z,16.70
2023-08-29T04:04:53.952Z,16.50
2023-08-29T04:07:21.078Z,16.60
2023-08-29T04:09:47.657Z,16.50
2023-08-29T04:12:14.246Z,16.60
2023-08-29T04:14:40.906Z,16.70
2023-08-29T04:17:07.520Z,16.60
2023-08-29T04:19:34.929Z,16.60
2023-08-29T04:22:01.957Z,16.70
2023-08-29T04:24:29.677Z,16.40
2023-08-29T04:26:56.336Z,16.50
2023-08-29T04:29:22.900Z,16.60
2023-08-29T04:31:50.097Z,16.70
2023-08-29T04:34:16.698Z,16.60
2023-08-29T04:36:43.294Z,16.60
2023-08-29T04:39:10.480Z,16.70
2023-08-29T04:41:37.211Z,16.80
2023-08-29T04:44:03.927Z,16.70
2023-08-29T04:46:30.484Z,16.40
2023-08-29T04:48:57.354Z,16.50
2023-08-29T04:51:24.222Z,16.50
2023-08-29T04:53:50.800Z,16.70
2023-08-29T04:56:17.389Z,16.70
2023-08-29T04:58:43.966Z,16.80
2023-08-29T05:01:10.639Z,16.90
2023-08-29T05:03:37.267Z,16.80
2023-08-29T05:06:04.124Z,16.90
2023-08-29T05:08:35.729Z,17.10
2023-08-29T05:11:03.582Z,17.10
2023-08-29T05:13:30.108Z,17.00
2023-08-29T05:15:56.743Z,17.10
2023-08-29T05:18:23.291Z,17.20
2023-08-29T05:20:49.846Z,17.10
2023-08-29T05:23:16.449Z,17.20
2023-08-29T05:25:43.735Z,17.20
2023-08-29T05:28:11.563Z,17.30
2023-08-29T05:30:38.271Z,17.00
2023-08-29T05:33:05.020Z,17.10
2023-08-29T05:35:31.675Z,17.00
2023-08-29T05:37:58.264Z,17.10
2023-08-29T05:40:24.931Z,17.20
2023-08-29T05:42:51.482Z,17.10
2023-08-29T05:45:18.212Z,17.10
2023-08-29T05:47:44.796Z,17.10
2023-08-29T05:50:11.396Z,17.20
2023-08-29T05:52:38.679Z,17.10
2023-08-29T05:55:05.915Z,17.10
2023-08-29T05:57:32.455Z,17.30
2023-08-29T05:59:59.047Z,17.20
2023-08-29T06:02:25.739Z,16.90
2023-08-29T06:04:52.322Z,17.00
2023-08-29T06:07:18.919Z,17.00
2023-08-29T06:09:45.460Z,17.10
2023-08-29T06:12:12.150Z,17.10
2023-08-29T06:14:38.706Z,17.30
2023-08-29T06:17:05.671Z,17.40
2023-08-29T06:19:32.183Z,17.40
2023-08-29T06:21:58.724Z,17.50
2023-08-29T06:24:25.509Z,17.40
2023-08-29T06:26:52.076Z,17.40
2023-08-29T06:29:18.613Z,17.40
2023-08-29T06:31:45.143Z,17.40
2023-08-29T06:34:11.821Z,17.40
2023-08-29T06:36:38.376Z,17.60
2023-08-29T06:39:05.991Z,17.50
2023-08-29T06:41:32.865Z,17.60
2023-08-29T06:43:59.465Z,17.70
2023-08-29T06:46:26.049Z,17.40
2023-08-29T06:48:52.683Z,17.50
2023-08-29T06:51:19.315Z,17.30
2023-08-29T06:53:45.883Z,17.30
2023-08-29T06:56:12.417Z,17.50
2023-08-29T06:58:39.553Z,17.60
2023-08-29T07:01:06.171Z,17.50
2023-08-29T07:03:32.998Z,17.30
2023-08-29T07:06:00.465Z,17.50
2023-08-29T07:08:27.036Z,17.50
2023-08-29T07:10:53.596Z,17.30
2023-08-29T07:13:20.184Z,17.50
2023-08-29T07:15:47.084Z,17.70
2023-08-29T07:18:14.229Z,17.70
2023-08-29T07:20:41.258Z,17.40
2023-08-29T07:23:07.840Z,17.70
2023-08-29T07:25:43.362Z,17.80
2023-08-29T07:28:10.627Z,17.50
2023-08-29T07:30:48.709Z,17.30
2023-08-29T07:33:15.748Z,17.40
2023-08-29T07:35:43.570Z,17.50
2023-08-29T07:38:10.822Z,17.60
2023-08-29T07:40:37.679Z,17.60
2023-08-29T07:43:06.790Z,17.30
2023-08-29T07:45:34.466Z,17.30
2023-08-29T07:48:01.527Z,17.40
2023-08-29T07:50:29.109Z,17.20
2023-08-29T07:52:55.929Z,17.30
2023-08-29T07:55:22.489Z,17.50
2023-08-29T07:57:49.476Z,17.40
2023-08-29T08:00:16.680Z,17.80
2023-08-29T08:02:43.595Z,18.00
2023-08-29T08:05:17.095Z,17.90
2023-08-29T08:07:45.166Z,18.10
2023-08-29T08:10:13.527Z,18.20
2023-08-29T08:12:41.457Z,18.30
2023-08-29T08:15:09.445Z,18.00
2023-08-29T08:17:36.882Z,17.80
2023-08-29T08:20:08.186Z,17.80
2023-08-29T08:22:42.045Z,18.00
2023-08-29T08:25:11.036Z,17.80
2023-08-29T08:27:37.681Z,17.90
2023-08-29T08:30:08.709Z,17.70
2023-08-29T08:32:35.451Z,17.80
2023-08-29T08:35:03.343Z,17.80
2023-08-29T08:37:31.006Z,17.80
2023-08-29T08:39:57.589Z,17.70
2023-08-29T08:42:24.177Z,17.80
2023-08-29T08:44:50.827Z,17.60
2023-08-29T08:47:17.608Z,17.50
2023-08-29T08:49:44.672Z,17.60
2023-08-29T08:52:12.138Z,17.40
2023-08-29T08:54:39.807Z,17.70
2023-08-29T08:57:06.716Z,18.00
2023-08-29T08:59:33.236Z,18.20
2023-08-29T09:02:00.060Z,18.00
2023-08-29T09:04:26.747Z,18.00
2023-08-29T09:06:53.373Z,17.90
2023-08-29T09:09:21.298Z,18.10
2023-08-29T09:11:57.940Z,18.20
2023-08-29T09:14:25.988Z,18.30
2023-08-29T09:17:00.468Z,18.10
2023-08-29T09:19:30.314Z,18.30
2023-08-29T09:21:57.104Z,18.40
2023-08-29T09:24:34.965Z,18.20
2023-08-29T09:27:06.248Z,18.30
2023-08-29T09:29:32.996Z,18.70
2023-08-29T09:31:59.965Z,18.70
2023-08-29T09:34:31.218Z,18.70
2023-08-29T09:36:58.445Z,18.90
2023-08-29T09:39:25.360Z,19.10
2023-08-29T09:42:04.434Z,18.60
2023-08-29T09:44:38.213Z,18.60
2023-08-29T09:47:06.331Z,18.80
2023-08-29T09:49:43.737Z,18.60
2023-08-29T09:52:11.237Z,18.30
2023-08-29T09:54:43.675Z,18.60
2023-08-29T09:57:11.865Z,18.50
2023-08-29T09:59:40.600Z,18.20
2023-08-29T10:02:10.664Z,18.60
2023-08-29T10:04:40.385Z,18.70
2023-08-29T10:07:07.163Z,18.60
2023-08-29T10:09:33.912Z,18.60
2023-08-29T10:12:01.252Z,18.60
2023-08-29T10:14:29.889Z,18.50
2023-08-29T10:16:59.779Z,18.70
2023-08-29T10:19:28.731Z,18.40
2023-08-29T10:21:55.567Z,18.40
2023-08-29T10:24:23.200Z,18.50
2023-08-29T10:26:50.888Z,18.60
2023-08-29T10:29:18.210Z,18.90
2023-08-29T10:31:45.732Z,19.00
2023-08-29T10:34:13.111Z,18.80
2023-08-29T10:36:40.320Z,18.70
2023-08-29T10:39:10.587Z,18.60
2023-08-29T10:41:54.244Z,18.60
2023-08-29T10:44:36.336Z,18.60
2023-08-29T10:47:27.649Z,18.60
2023-08-29T10:50:07.372Z,18.70
2023-08-29T10:52:43.237Z,18.40
2023-08-29T10:55:20.047Z,18.40
2023-08-29T10:57:47.275Z,18.60
2023-08-29T11:00:19.383Z,18.40
2023-08-29T11:02:46.036Z,18.20
2023-08-29T11:05:13.616Z,18.50
2023-08-29T11:07:40.233Z,18.30
2023-08-29T11:10:19.035Z,18.50
2023-08-29T11:13:07.928Z,18.50
2023-08-29T11:16:03.889Z,18.20
2023-08-29T11:18:31.959Z,18.10
2023-08-29T11:21:09.965Z,18.50
2023-08-29T11:27:49.471Z,18.50
2023-08-29T11:30:28.062Z,18.50
2023-08-29T11:32:57.992Z,18.50
2023-08-29T11:35:24.766Z,18.60
2023-08-29T11:37:51.346Z,18.60
2023-08-29T11:40:26.253Z,18.80
2023-08-29T11:43:43.775Z,18.90
2023-08-29T11:45:48.583Z,18.90
2023-08-29T11:48:24.846Z,18.90
2023-08-29T11:50:55.654Z,19.10
2023-08-29T11:53:23.637Z,19.10
2023-08-29T11:55:51.122Z,19.10
2023-08-29T11:58:17.654Z,19.00
2023-08-29T12:00:44.302Z,19.10
2023-08-29T12:03:11.390Z,19.00
2023-08-29T12:05:40.009Z,18.90
2023-08-29T12:08:06.759Z,18.70
2023-08-29T12:10:33.423Z,18.80
2023-08-29T12:13:12.405Z,18.90
2023-08-29T12:15:43.817Z,19.00
2023-08-29T12:18:21.681Z,19.10
2023-08-29T12:20:48.852Z,18.60
2023-08-29T12:23:25.760Z,18.90
2023-08-29T12:25:52.389Z,18.90
2023-08-29T12:28:18.936Z,18.70
2023-08-29T12:30:45.510Z,18.90
2023-08-29T12:33:12.127Z,18.70
2023-08-29T12:35:40.031Z,18.70
2023-08-29T12:38:07.680Z,18.60
2023-08-29T12:40:34.633Z,18.40
2023-08-29T12:43:01.193Z,18.80
2023-08-29T12:45:27.740Z,18.70
2023-08-29T12:47:55.460Z,18.80
2023-08-29T12:50:22.119Z,18.80
2023-08-29T12:52:48.855Z,19.00
2023-08-29T12:55:15.475Z,18.70
2023-08-29T12:58:36.880Z,18.60
2023-08-29T13:01:03.454Z,18.80
2023-08-29T13:03:30.133Z,18.60
2023-08-29T13:05:56.670Z,18.40
2023-08-29T13:08:23.401Z,18.40
2023-08-29T13:10:50.078Z,18.40
2023-08-29T13:13:17.361Z,18.40
2023-08-29T13:15:57.607Z,18.40
2023-08-29T13:18:24.324Z,18.20
2023-08-29T13:20:50.892Z,18.30
2023-08-29T13:23:17.715Z,18.00
2023-08-29T13:25:44.628Z,18.40
2023-08-29T13:28:11.245Z,18.40
2023-08-29T13:30:38.270Z,18.20
2023-08-29T13:33:05.151Z,18.20
2023-08-29T13:35:31.783Z,18.30
2023-08-29T13:37:58.319Z,18.30
2023-08-29T13:40:24.837Z,18.40
2023-08-29T13:42:53.240Z,18.50
2023-08-29T13:45:20.031Z,18.60
2023-08-29T13:47:47.909Z,18.60
2023-08-29T13:50:14.481Z,18.60
2023-08-29T13:52:41.072Z,18.80
2023-08-29T13:55:07.999Z,18.80
2023-08-29T13:57:34.585Z,18.60
2023-08-29T14:00:01.177Z,18.60
2023-08-29T14:02:27.924Z,18.80
2023-08-29T14:09:14.450Z,18.40
2023-08-29T14:11:40.992Z,18.40
2023-08-29T14:14:07.554Z,18.40
2023-08-29T14:16:34.087Z,18.40
2023-08-29T14:19:00.727Z,18.70
2023-08-29T14:21:27.237Z,18.40
2023-08-29T14:23:53.778Z,18.50
2023-08-29T14:26:20.390Z,18.30
2023-08-29T14:28:46.998Z,18.50
2023-08-29T14:31:13.631Z,18.30
2023-08-29T14:33:40.231Z,18.30
2023-08-29T14:36:06.857Z,18.20
2023-08-29T14:38:33.474Z,18.30
2023-08-29T14:41:08.547Z,18.20
2023-08-29T14:43:38.140Z,18.50
2023-08-29T14:46:06.036Z,18.40
2023-08-29T14:48:34.713Z,18.50
2023-08-29T14:55:13.070Z,18.60
2023-08-29T14:57:39.614Z,18.60
2023-08-29T15:00:06.969Z,17.90
2023-08-29T15:02:33.730Z,17.90
2023-08-29T15:05:00.409Z,18.00
2023-08-29T15:07:32.683Z,17.90
2023-08-29T15:10:09.032Z,18.00
2023-08-29T15:12:35.935Z,18.20
2023-08-29T15:15:02.603Z,18.10
2023-08-29T15:17:30.967Z,18.20
2023-08-29T15:19:57.953Z,18.30
2023-08-29T15:22:30.445Z,18.40
2023-08-29T15:25:01.029Z,18.40
2023-08-29T15:27:27.557Z,18.40
2023-08-29T15:29:57.133Z,18.50
2023-08-29T15:32:26.601Z,18.10
2023-08-29T15:34:53.519Z,17.70
2023-08-29T15:37:20.111Z,17.90
2023-08-29T15:43:48.511Z,18.10
2023-08-29T15:46:19.166Z,17.50
2023-08-29T15:48:46.051Z,17.70
2023-08-29T15:51:14.491Z,17.60
2023-08-29T15:53:42.447Z,17.70
2023-08-29T15:56:11.587Z,17.70
2023-08-29T15:58:38.216Z,17.70
2023-08-29T16:01:08.390Z,17.70
2023-08-29T16:03:39.934Z,17.80
2023-08-29T16:06:09.393Z,17.90
2023-08-29T16:08:36.110Z,17.70
2023-08-29T16:11:02.889Z,17.60
2023-08-29T16:13:29.487Z,17.60
2023-08-29T16:15:57.204Z,17.60
2023-08-29T16:18:24.445Z,17.60
2023-08-29T16:20:54.504Z,17.60
2023-08-29T16:23:21.106Z,17.70
2023-08-29T16:25:50.133Z,17.90
2023-08-29T16:32:09.890Z,17.60
2023-08-29T16:34:36.463Z,17.60
2023-08-29T16:37:03.967Z,17.60
2023-08-29T16:39:32.499Z,17.70
2023-08-29T16:42:00.596Z,17.60
2023-08-29T16:44:27.130Z,17.70
2023-08-29T16:46:53.842Z,17.50
2023-08-29T16:49:20.690Z,17.40
2023-08-29T16:51:47.303Z,17.20
2023-08-29T16:54:14.801Z,17.30
2023-08-29T16:56:41.439Z,17.30
2023-08-29T16:59:08.117Z,17.50
2023-08-29T17:01:34.791Z,17.00
2023-08-29T17:04:01.487Z,17.10
2023-08-29T17:06:28.087Z,17.30
2023-08-29T17:08:56.219Z,17.30
2023-08-29T17:11:23.252Z,17.30
2023-08-29T17:13:49.802Z,17.40
2023-08-29T17:38:57.535Z,16.40
2023-08-29T17:41:27.022Z,16.40
2023-08-29T17:43:53.590Z,16.40
2023-08-29T17:46:20.777Z,16.30
2023-08-29T17:48:47.735Z,16.30
2023-08-29T17:51:14.526Z,16.40
2023-08-29T17:53:41.051Z,16.40
2023-08-29T17:56:07.897Z,16.70
2023-08-29T17:58:36.167Z,16.50
2023-08-29T18:01:34.169Z,16.60
2023-08-29T18:04:00.827Z,16.70
2023-08-29T18:06:27.400Z,16.30
2023-08-29T18:08:55.963Z,16.50
2023-08-29T18:11:22.830Z,16.60
2023-08-29T18:13:49.547Z,16.70
2023-08-29T18:16:16.384Z,16.90
2023-08-29T18:18:42.945Z,16.50
2023-08-29T18:21:11.662Z,16.70
2023-08-29T18:23:38.286Z,16.90
2023-08-29T18:26:06.826Z,16.80
2023-08-29T18:28:34.430Z,16.90
2023-08-29T18:31:02.151Z,16.90
2023-08-29T18:33:29.016Z,16.90
2023-08-29T18:35:55.583Z,17.00
2023-08-29T18:38:22.831Z,17.00
2023-08-29T18:40:49.456Z,17.00
2023-08-29T18:43:16.588Z,16.90
2023-08-29T18:49:55.192Z,17.00
2023-08-29T18:52:22.921Z,17.00
2023-08-29T18:54:49.545Z,17.00
2023-08-29T18:57:16.291Z,17.10
2023-08-29T18:59:43.147Z,17.10
2023-08-29T19:02:09.686Z,17.10
2023-08-29T19:04:36.426Z,16.80
2023-08-29T19:07:03.369Z,16.80
2023-08-29T19:09:30.127Z,16.60
2023-08-29T19:11:56.889Z,16.50
2023-08-29T19:14:23.759Z,16.40
2023-08-29T19:16:50.420Z,16.60
2023-08-29T19:19:17.033Z,16.70
2023-08-29T19:21:43.850Z,16.60
2023-08-29T19:24:10.399Z,16.70
2023-08-29T19:26:37.372Z,16.80
2023-08-29T19:29:04.644Z,16.70
2023-08-29T19:31:31.363Z,16.70
2023-08-29T19:33:57.904Z,16.80
2023-08-29T19:36:24.478Z,16.60
2023-08-29T19:38:51.894Z,16.40
2023-08-29T19:41:21.473Z,16.60
2023-08-29T19:43:48.081Z,16.60
2023-08-29T19:46:14.736Z,16.70
2023-08-29T19:48:41.332Z,16.70
2023-08-29T19:51:07.920Z,16.60
2023-08-29T19:53:36.628Z,16.60
2023-08-29T19:56:05.176Z,16.70
2023-08-29T19:58:31.850Z,16.70
2023-08-29T20:01:06.072Z,16.70
2023-08-29T20:03:32.622Z,16.60
2023-08-29T20:05:59.215Z,16.50
2023-08-29T20:08:25.702Z,16.50
2023-08-29T20:10:52.282Z,16.60
2023-08-29T20:13:18.964Z,16.70
2023-08-29T20:15:46.046Z,16.70
2023-08-29T20:18:13.685Z,16.60
2023-08-29T20:20:41.597Z,16.50
2023-08-29T20:23:12.730Z,16.70
2023-08-29T20:25:39.772Z,16.70
2023-08-29T20:28:07.750Z,16.60
2023-08-29T20:30:35.518Z,16.30
2023-08-29T20:33:02.262Z,16.20
2023-08-29T20:35:29.266Z,16.20
2023-08-29T20:37:59.118Z,16.40
2023-08-29T20:40:25.904Z,16.40
2023-08-29T20:42:52.971Z,16.30
2023-08-29T20:45:21.726Z,16.30
2023-08-29T20:47:50.911Z,16.10
2023-08-29T20:50:18.070Z,16.30
2023-08-29T20:52:44.717Z,16.30
2023-08-29T20:55:14.928Z,16.30
2023-08-29T20:57:46.766Z,16.40
2023-08-29T21:00:13.666Z,16.50
2023-08-29T21:02:40.508Z,16.40
2023-08-29T21:05:07.619Z,16.50
2023-08-29T21:07:34.177Z,16.50
2023-08-29T21:10:03.905Z,16.40
2023-08-29T21:12:31.156Z,16.50
2023-08-29T21:14:57.745Z,16.60
2023-08-29T21:17:26.540Z,16.60
2023-08-29T21:19:53.145Z,16.60
2023-08-29T21:22:19.685Z,16.50
2023-08-29T21:24:46.225Z,16.20
2023-08-29T21:27:12.832Z,16.30
2023-08-29T21:29:39.426Z,16.30
2023-08-29T21:32:06.174Z,16.40
2023-08-29T21:34:32.841Z,16.50
2023-08-29T21:36:59.374Z,16.50
2023-08-29T21:39:26.076Z,16.50
2023-08-29T21:41:52.966Z,16.30
2023-08-29T21:44:19.468Z,16.10
2023-08-29T21:46:46.045Z,16.00
2023-08-29T21:49:12.618Z,16.00
2023-08-29T21:51:39.206Z,16.20
2023-08-29T21:54:05.862Z,16.20
2023-08-29T21:56:32.444Z,16.30
2023-08-29T21:58:59.093Z,16.30
2023-08-29T22:01:25.721Z,16.40
2023-08-29T22:03:52.361Z,16.50
2023-08-29T22:06:19.048Z,16.30
2023-08-29T22:08:45.828Z,16.20
2023-08-29T22:11:12.318Z,16.20
2023-08-29T22:13:39.479Z,16.30
2023-08-29T22:16:06.092Z,16.40
2023-08-29T22:18:35.436Z,16.30
2023-08-29T22:21:03.881Z,16.30
2023-08-29T22:23:31.932Z,16.50
2023-08-29T22:25:58.504Z,16.50
2023-08-29T22:28:25.550Z,16.50
2023-08-29T22:30:52.206Z,16.50
2023-08-29T22:33:18.750Z,16.60
2023-08-29T22:35:48.649Z,16.60
2023-08-29T22:38:15.649Z,16.50
2023-08-29T22:40:42.304Z,16.50
2023-08-29T22:43:08.903Z,16.50
2023-08-29T22:45:35.526Z,16.60
2023-08-29T22:48:02.241Z,16.50
2023-08-29T22:50:28.843Z,16.60
2023-08-29T22:52:55.465Z,16.60
2023-08-29T22:55:24.434Z,16.70
2023-08-29T22:57:52.599Z,16.70
2023-08-29T23:00:19.388Z,16.60
2023-08-29T23:02:46.003Z,16.60
2023-08-29T23:05:12.700Z,16.50
2023-08-29T23:07:40.184Z,16.60
2023-08-29T23:10:07.197Z,16.60
2023-08-29T23:12:34.137Z,16.60
2023-08-29T23:15:00.719Z,16.70
2023-08-29T23:17:27.309Z,16.70
2023-08-29T23:19:53.877Z,16.70
2023-08-29T23:22:20.399Z,16.60
2023-08-29T23:24:47.025Z,16.50
2023-08-29T23:27:13.839Z,16.50
2023-08-29T23:29:40.381Z,16.50
2023-08-29T23:32:07.355Z,16.50
2023-08-29T23:34:33.998Z,16.60
2023-08-29T23:37:00.509Z,16.60
2023-08-29T23:39:27.065Z,16.50
2023-08-29T23:41:53.757Z,16.50
2023-08-29T23:44:20.344Z,16.60
2023-08-29T23:46:46.918Z,16.60
2023-08-29T23:49:13.717Z,16.60
2023-08-29T23:51:40.244Z,16.60
2023-08-29T23:54:07.014Z,16.50
2023-08-29T23:56:33.659Z,16.50
2023-08-29T23:59:00.212Z,16.50
